Time;durP1;ratioP1;P1;durP2;ratioP2;P2;SDS_P1;SDS_P2;PMS_P1;PMS_P2;Temp;Humidity;BMP_temperature;BMP_pressure;BME280_temperature;BME280_humidity;BME280_pressure;Samples;Min_cycle;Max_cycle;Signal;HPM_P1;HPM_P2
2022/07/29 00:00:44;;;;;;;;;7.00;5.00;;;;;21.08;39.35;101276.44;5077992;28;45387;-85
2022/07/29 00:03:09;;;;;;;;;5.00;3.25;;;;;21.12;39.89;101284.16;5076592;28;46392;-85
2022/07/29 00:05:34;;;;;;;;;6.50;5.25;;;;;21.12;40.02;101285.03;5076259;28;45312;-84
2022/07/29 00:08:00;;;;;;;;;6.75;6.00;;;;;21.13;39.85;101281.41;5058638;28;66347;-84
2022/07/29 00:10:25;;;;;;;;;5.00;5.00;;;;;21.14;39.75;101280.47;5075772;28;63660;-84
2022/07/29 00:12:50;;;;;;;;;5.00;4.50;;;;;21.08;39.82;101272.94;5075207;28;74514;-84
2022/07/29 00:15:16;;;;;;;;;5.50;5.50;;;;;21.06;40.83;101273.03;5075901;28;54316;-84
2022/07/29 00:17:41;;;;;;;;;7.75;6.75;;;;;20.95;40.15;101258.78;5076898;27;61482;-84
2022/07/29 00:20:07;;;;;;;;;7.25;7.00;;;;;21.04;40.23;101271.41;5076063;28;45369;-84
2022/07/29 00:22:32;;;;;;;;;6.50;5.25;;;;;21.02;39.82;101266.25;5075969;28;45446;-83
2022/07/29 00:24:58;;;;;;;;;10.25;5.75;;;;;21.02;40.61;101274.19;5076364;28;64519;-84
2022/07/29 00:27:23;;;;;;;;;7.25;7.25;;;;;20.93;40.26;101268.63;5077316;28;46046;-84
2022/07/29 00:29:49;;;;;;;;;8.00;6.25;;;;;20.83;40.49;101257.78;5077490;27;45383;-84
2022/07/29 00:32:14;;;;;;;;;6.75;6.00;;;;;20.77;40.28;101247.59;5076988;27;46579;-84
2022/07/29 00:37:23;;;;;;;;;7.00;7.00;;;;;20.78;40.95;101260.75;5105184;27;45283;-84
2022/07/29 00:39:49;;;;;;;;;9.75;7.00;;;;;20.75;41.02;101265.38;5077194;28;45330;-84
2022/07/29 00:42:14;;;;;;;;;6.75;6.50;;;;;20.75;40.36;101257.44;5076077;27;66642;-84
2022/07/29 00:44:40;;;;;;;;;7.75;6.00;;;;;20.73;41.09;101256.66;5076995;27;46440;-84
2022/07/29 00:47:07;;;;;;;;;7.00;5.50;;;;;20.67;41.47;101245.53;5076761;28;45420;-84
2022/07/29 00:49:33;;;;;;;;;8.75;7.75;;;;;20.69;41.44;101250.75;5076984;28;45353;-84
2022/07/29 00:52:01;;;;;;;;;9.00;7.00;;;;;20.66;41.23;101246.47;5076761;28;47689;-84
2022/07/29 00:54:26;;;;;;;;;9.00;7.00;;;;;20.67;41.54;101255.25;5076991;28;46018;-84
2022/07/29 00:56:52;;;;;;;;;4.50;4.50;;;;;20.66;41.58;101250.91;5076964;27;45271;-84
2022/07/29 00:59:17;;;;;;;;;9.00;8.00;;;;;20.63;41.76;101249.31;5075105;28;61783;-84
2022/07/29 01:01:42;;;;;;;;;9.00;8.00;;;;;20.59;41.35;101252.22;5076391;27;46209;-84
2022/07/29 01:04:08;;;;;;;;;7.25;6.00;;;;;20.62;41.57;101254.72;5074631;28;72161;-83
2022/07/29 01:06:34;;;;;;;;;10.00;6.75;;;;;20.63;41.23;101256.41;5076711;27;45724;-84
2022/07/29 01:09:00;;;;;;;;;9.00;7.00;;;;;20.57;42.13;101249.66;5075715;28;45400;-84
2022/07/29 01:11:25;;;;;;;;;10.00;9.00;;;;;20.58;41.94;101238.16;5075407;28;46424;-83
2022/07/29 01:13:51;;;;;;;;;8.25;7.50;;;;;20.65;42.12;101249.22;5074694;28;66893;-84
2022/07/29 01:16:31;;;;;;;;;8.00;8.00;;;;;20.64;41.93;101258.09;5074467;28;59788;-84
2022/07/29 01:19:01;;;;;;;;;7.25;7.00;;;;;20.60;41.88;101248.66;5075525;28;45424;-84
2022/07/29 01:21:53;;;;;;;;;7.50;7.50;;;;;20.61;42.35;101256.50;5075399;28;46569;-84
2022/07/29 01:24:30;;;;;;;;;8.00;7.00;;;;;20.59;42.40;101255.72;5075087;28;45858;-84
2022/07/29 01:27:26;;;;;;;;;11.50;9.50;;;;;20.51;42.41;101255.34;5075062;28;45320;-84
2022/07/29 01:29:59;;;;;;;;;11.25;10.00;;;;;20.46;42.52;101260.91;5075243;28;45522;-84
2022/07/29 01:32:31;;;;;;;;;13.00;10.25;;;;;20.38;42.16;101252.63;5074621;28;45404;-84
2022/07/29 01:35:18;;;;;;;;;14.75;11.50;;;;;20.39;42.38;101256.09;5109165;27;45346;-84
2022/07/29 01:37:45;;;;;;;;;9.25;8.00;;;;;20.46;42.96;101265.34;5109325;27;45440;-84
2022/07/29 01:40:20;;;;;;;;;10.50;10.50;;;;;20.40;42.60;101258.66;5109302;27;45377;-84
2022/07/29 01:42:51;;;;;;;;;8.75;7.75;;;;;20.39;42.56;101261.38;5108821;27;45379;-84
2022/07/29 01:45:19;;;;;;;;;11.50;10.00;;;;;20.43;42.50;101260.25;5074573;28;45289;-84
2022/07/29 01:47:53;;;;;;;;;12.00;10.00;;;;;20.37;42.46;101250.91;5075899;27;45363;-84
2022/07/29 01:50:23;;;;;;;;;9.00;8.00;;;;;20.38;43.09;101255.25;5074794;28;45514;-84
2022/07/29 01:53:00;;;;;;;;;7.50;6.50;;;;;20.31;42.46;101260.06;5074656;28;46454;-84
2022/07/29 01:55:29;;;;;;;;;8.00;7.50;;;;;20.27;43.18;101252.44;5074972;28;45362;-84
2022/07/29 01:57:57;;;;;;;;;12.25;10.25;;;;;20.21;42.90;101258.94;5074870;28;45340;-84
2022/07/29 02:00:23;;;;;;;;;9.25;9.00;;;;;20.15;43.23;101251.41;5075770;28;45335;-83
2022/07/29 02:02:49;;;;;;;;;8.50;7.75;;;;;20.09;43.02;101249.13;5075904;28;45347;-84
2022/07/29 02:05:17;;;;;;;;;9.25;8.25;;;;;20.17;43.14;101267.13;5074791;28;45684;-84
2022/07/29 02:07:44;;;;;;;;;8.25;8.00;;;;;20.16;43.37;101265.47;5074643;28;45387;-84
2022/07/29 02:10:11;;;;;;;;;7.25;6.00;;;;;20.07;42.84;101257.13;5074919;28;45365;-84
2022/07/29 02:12:38;;;;;;;;;9.25;8.00;;;;;20.02;42.60;101259.22;5073654;28;73646;-83
2022/07/29 02:15:05;;;;;;;;;9.00;9.00;;;;;20.00;42.82;101269.03;5074320;28;45491;-84
2022/07/29 02:17:39;;;;;;;;;10.25;9.75;;;;;19.94;43.09;101272.03;5074660;28;45422;-84
2022/07/29 02:20:05;;;;;;;;;9.00;7.00;;;;;19.94;43.19;101265.91;5074749;28;45335;-83
2022/07/29 02:22:33;;;;;;;;;10.00;8.50;;;;;19.97;42.61;101271.84;5074367;28;45458;-84
2022/07/29 02:24:59;;;;;;;;;10.25;8.00;;;;;19.98;42.84;101270.06;5074280;28;45700;-84
2022/07/29 02:27:27;;;;;;;;;9.00;7.00;;;;;20.01;43.36;101275.16;5073518;28;65081;-84
2022/07/29 02:29:53;;;;;;;;;6.00;6.00;;;;;19.97;43.19;101273.66;5074441;28;45493;-84
2022/07/29 02:32:19;;;;;;;;;10.25;8.75;;;;;19.95;42.53;101276.38;5084775;27;66314;-84
2022/07/29 02:34:46;;;;;;;;;7.00;7.00;;;;;19.95;43.57;101283.44;5074326;27;45390;-84
2022/07/29 02:37:11;;;;;;;;;7.75;7.00;;;;;19.88;43.24;101275.88;5073114;28;63754;-84
2022/07/29 02:39:39;;;;;;;;;9.75;8.00;;;;;19.84;43.46;101278.81;5108301;27;45270;-83
2022/07/29 02:42:07;;;;;;;;;6.25;6.00;;;;;19.81;43.32;101286.91;5108293;27;47550;-84
2022/07/29 02:44:34;;;;;;;;;4.00;4.00;;;;;19.74;43.44;101281.13;5075364;28;45615;-84
2022/07/29 02:47:13;;;;;;;;;6.00;6.00;;;;;19.73;43.43;101284.72;5074194;28;45480;-84
2022/07/29 02:49:51;;;;;;;;;9.75;7.00;;;;;19.71;43.40;101290.06;5074111;28;45637;-84
2022/07/29 02:52:22;;;;;;;;;6.50;6.00;;;;;19.65;43.87;101277.22;5074101;28;45519;-84
2022/07/29 02:54:55;;;;;;;;;9.00;7.00;;;;;19.66;43.54;101272.78;5074174;28;45330;-84
2022/07/29 02:57:26;;;;;;;;;7.75;7.75;;;;;19.69;44.04;101277.91;5074306;28;45514;-84
2022/07/29 02:59:52;;;;;;;;;5.50;5.50;;;;;19.67;43.62;101274.50;5074212;28;45485;-84
2022/07/29 03:02:18;;;;;;;;;8.75;6.00;;;;;19.68;43.57;101273.53;5076965;28;45415;-84
2022/07/29 03:04:44;;;;;;;;;7.00;6.50;;;;;19.66;44.15;101272.78;5076552;28;62911;-83
2022/07/29 03:07:13;;;;;;;;;8.25;7.75;;;;;19.64;44.44;101270.22;5077360;28;45539;-84
2022/07/29 03:09:39;;;;;;;;;7.50;6.50;;;;;19.67;44.38;101285.06;5077610;28;45306;-83
2022/07/29 03:12:05;;;;;;;;;7.50;6.25;;;;;19.64;44.11;101283.44;5076037;28;72368;-84
2022/07/29 03:14:31;;;;;;;;;8.25;7.25;;;;;19.57;44.05;101284.72;5078493;28;45374;-84
2022/07/29 03:16:57;;;;;;;;;9.00;8.00;;;;;19.51;43.80;101291.22;5076856;28;57515;-84
2022/07/29 03:19:22;;;;;;;;;5.75;5.75;;;;;19.46;44.41;101302.97;5076280;28;65977;-84
2022/07/29 03:21:48;;;;;;;;;7.25;7.25;;;;;19.36;44.67;101291.25;5077111;28;45449;-84
2022/07/29 03:24:35;;;;;;;;;8.00;6.75;;;;;19.38;44.64;101299.94;5078258;27;45365;-84
2022/07/29 03:27:02;;;;;;;;;9.00;7.75;;;;;19.33;44.44;101293.13;5076756;28;45501;-84
2022/07/29 03:29:28;;;;;;;;;5.25;5.25;;;;;19.36;45.00;101291.25;5078484;28;45422;-84
2022/07/29 03:31:53;;;;;;;;;7.00;6.00;;;;;19.34;44.72;101292.19;5062415;28;46691;-84
2022/07/29 03:34:19;;;;;;;;;7.25;5.75;;;;;19.36;44.71;101294.75;5056888;28;45359;-83
2022/07/29 03:36:44;;;;;;;;;8.00;7.00;;;;;19.28;44.86;101287.28;5056757;28;45394;-84
2022/07/29 03:39:10;;;;;;;;;8.50;7.25;;;;;19.23;44.90;101280.56;5055801;28;70449;-84
2022/07/29 03:41:37;;;;;;;;;5.25;5.25;;;;;19.25;45.01;101284.78;5063646;27;46688;-84
2022/07/29 03:44:04;;;;;;;;;9.50;7.50;;;;;19.24;44.45;101283.09;5077015;28;45827;-84
2022/07/29 03:46:31;;;;;;;;;5.00;5.00;;;;;19.27;44.63;101296.09;5076793;28;45419;-84
2022/07/29 03:49:00;;;;;;;;;7.25;6.25;;;;;19.26;45.19;101290.91;5076126;28;63314;-84
2022/07/29 03:51:25;;;;;;;;;7.75;7.75;;;;;19.27;45.11;101297.91;5076555;28;46475;-84
2022/07/29 03:53:51;;;;;;;;;10.25;7.25;;;;;19.23;44.53;101299.03;5076549;28;45363;-84
2022/07/29 03:56:17;;;;;;;;;7.75;7.00;;;;;19.23;44.83;101299.03;5077687;28;45381;-84
2022/07/29 03:58:44;;;;;;;;;5.25;3.00;;;;;19.21;45.31;101290.34;5076660;28;45507;-83
2022/07/29 04:01:10;;;;;;;;;5.25;5.25;;;;;19.24;45.08;101292.78;5077766;27;47107;-84
2022/07/29 04:03:35;;;;;;;;;9.50;7.00;;;;;19.30;44.97;101306.50;5075470;28;71381;-83
2022/07/29 04:06:03;;;;;;;;;5.25;5.25;;;;;19.27;45.13;101303.19;5075944;28;61337;-83
2022/07/29 04:08:28;;;;;;;;;7.25;6.00;;;;;19.22;45.04;101299.94;5077734;28;45355;-84
2022/07/29 04:10:54;;;;;;;;;9.25;6.00;;;;;19.14;44.88;101297.75;5074865;28;65367;-84
2022/07/29 04:13:20;;;;;;;;;6.00;6.00;;;;;19.10;44.84;101306.78;5077618;28;45397;-84
2022/07/29 04:15:45;;;;;;;;;8.00;6.25;;;;;19.08;45.19;101306.00;5077215;28;48965;-84
2022/07/29 04:18:11;;;;;;;;;5.25;4.00;;;;;19.06;45.13;101307.88;5076695;27;68959;-84
2022/07/29 04:20:36;;;;;;;;;6.25;6.25;;;;;19.09;45.34;101311.22;5077431;27;45420;-84
2022/07/29 04:23:02;;;;;;;;;9.00;6.50;;;;;19.13;45.48;101307.44;5075442;28;63942;-84
2022/07/29 04:25:27;;;;;;;;;7.75;7.25;;;;;19.14;45.09;101303.88;5077180;28;45569;-84
2022/07/29 04:28:02;;;;;;;;;6.50;6.00;;;;;19.01;45.32;101294.09;5058301;28;66398;-84
2022/07/29 04:30:27;;;;;;;;;7.00;7.00;;;;;19.00;45.25;101303.81;5058184;28;46246;-84
2022/07/29 04:32:53;;;;;;;;;7.75;7.75;;;;;18.96;45.79;101307.53;5056935;28;45417;-84
2022/07/29 04:35:19;;;;;;;;;4.75;4.00;;;;;18.94;45.85;101306.75;5057209;28;45723;-84
2022/07/29 04:37:45;;;;;;;;;11.25;6.75;;;;;18.99;45.65;101311.78;5038913;28;45443;-84
2022/07/29 04:40:11;;;;;;;;;8.00;8.00;;;;;19.02;45.99;101308.97;5038596;28;46471;-84
2022/07/29 04:42:37;;;;;;;;;9.00;7.25;;;;;19.08;45.92;101311.28;5072959;28;45762;-83
2022/07/29 04:45:02;;;;;;;;;8.50;8.50;;;;;19.14;46.13;101314.41;5077142;28;45400;-84
2022/07/29 04:47:28;;;;;;;;;10.00;8.25;;;;;19.16;46.37;101309.06;5076990;28;45578;-84
2022/07/29 04:49:53;;;;;;;;;8.50;7.00;;;;;19.19;46.08;101313.34;5076177;28;68546;-84
2022/07/29 04:52:18;;;;;;;;;6.75;6.75;;;;;19.25;45.95;101312.97;5076931;28;45435;-84
2022/07/29 04:54:44;;;;;;;;;10.00;8.00;;;;;19.26;45.85;101317.31;5057718;28;62568;-84
2022/07/29 04:57:09;;;;;;;;;7.00;6.50;;;;;19.21;45.69;101311.47;5076958;28;45498;-84
2022/07/29 04:59:34;;;;;;;;;6.75;6.75;;;;;19.24;45.70;101329.75;5076195;28;64944;-84
2022/07/29 05:02:00;;;;;;;;;7.25;6.75;;;;;19.30;45.81;101330.25;5076359;28;55437;-84
2022/07/29 05:04:25;;;;;;;;;5.00;5.00;;;;;19.36;45.87;101330.84;5076970;28;45469;-84
2022/07/29 05:06:50;;;;;;;;;7.00;6.00;;;;;19.37;45.84;101335.19;5058598;28;45429;-84
2022/07/29 05:09:16;;;;;;;;;5.75;5.75;;;;;19.42;46.32;101331.34;5057591;28;70434;-84
2022/07/29 05:11:41;;;;;;;;;6.75;6.00;;;;;19.46;45.46;101340.78;5058544;28;45441;-84
2022/07/29 05:14:06;;;;;;;;;7.25;6.00;;;;;19.49;45.64;101334.50;5058638;28;45487;-85
2022/07/29 05:16:32;;;;;;;;;9.75;7.00;;;;;19.45;45.13;101327.69;5058452;28;46743;-84
2022/07/29 05:18:57;;;;;;;;;6.50;6.25;;;;;19.49;45.14;101332.69;5076400;28;46565;-85
2022/07/29 05:21:22;;;;;;;;;8.25;7.00;;;;;19.52;45.15;101335.19;5058058;28;56376;-84
2022/07/29 05:23:47;;;;;;;;;5.00;5.00;;;;;19.52;44.93;101327.25;5074678;28;54102;-84
2022/07/29 05:26:13;;;;;;;;;5.25;5.25;;;;;19.61;44.77;101343.50;5057734;28;60071;-84
2022/07/29 05:28:38;;;;;;;;;6.25;6.25;;;;;19.65;44.82;101332.69;5057493;28;67944;-84
2022/07/29 05:31:04;;;;;;;;;6.50;6.00;;;;;19.77;44.72;101340.88;5051074;28;45483;-83
2022/07/29 05:33:29;;;;;;;;;5.25;5.25;;;;;19.81;44.96;101345.03;5037569;28;59392;-84
2022/07/29 05:35:54;;;;;;;;;9.75;7.25;;;;;19.78;45.10;101330.22;5038134;28;45411;-84
2022/07/29 05:38:20;;;;;;;;;6.50;6.00;;;;;19.76;44.93;101316.25;5036658;28;72902;-85
2022/07/29 05:40:45;;;;;;;;;5.25;5.25;;;;;19.96;45.06;101327.44;5055651;28;67619;-84
2022/07/29 05:43:10;;;;;;;;;6.75;6.75;;;;;20.08;45.64;101342.56;5058345;28;45362;-84
2022/07/29 05:45:36;;;;;;;;;7.50;6.50;;;;;20.08;44.47;101342.56;5076266;28;45431;-84
2022/07/29 05:48:02;;;;;;;;;6.50;6.00;;;;;20.07;44.55;101340.84;5076038;28;45519;-84
2022/07/29 05:50:27;;;;;;;;;7.50;5.75;;;;;20.13;44.82;101342.28;5076091;28;45365;-84
2022/07/29 05:52:52;;;;;;;;;7.75;7.00;;;;;20.19;44.77;101340.13;5075326;28;56595;-84
2022/07/29 05:55:18;;;;;;;;;3.75;3.75;;;;;20.28;44.37;101341.34;5057536;28;62273;-84
2022/07/29 05:57:45;;;;;;;;;10.50;6.00;;;;;20.28;44.21;101336.06;5056996;28;64075;-84
2022/07/29 06:00:10;;;;;;;;;8.00;6.25;;;;;20.43;44.87;101358.09;5076146;28;45191;-84
2022/07/29 06:02:36;;;;;;;;;7.00;6.00;;;;;20.47;43.56;101349.03;5058001;28;45421;-84
2022/07/29 06:05:02;;;;;;;;;6.25;6.00;;;;;20.48;42.96;101354.22;5058095;28;45637;-84
2022/07/29 06:07:27;;;;;;;;;6.50;5.75;;;;;20.45;43.28;101357.06;5075201;28;46807;-84
2022/07/29 06:09:53;;;;;;;;;6.50;5.75;;;;;20.49;43.20;101360.38;5057797;28;45404;-84
2022/07/29 06:12:19;;;;;;;;;6.75;6.50;;;;;20.49;42.76;101350.63;5057252;28;61610;-84
2022/07/29 06:14:45;;;;;;;;;7.50;6.00;;;;;20.59;44.04;101361.50;5057861;28;45595;-84
2022/07/29 06:17:11;;;;;;;;;7.75;5.00;;;;;20.59;42.67;101356.22;5057515;28;47061;-84
2022/07/29 06:19:37;;;;;;;;;6.50;5.00;;;;;20.58;42.82;101361.59;5057924;28;45784;-83
2022/07/29 06:22:02;;;;;;;;;7.00;6.00;;;;;20.53;42.48;101356.59;5057850;28;45428;-85
2022/07/29 06:24:28;;;;;;;;;6.25;6.25;;;;;20.54;42.65;101370.66;5069177;28;45387;-83
2022/07/29 06:26:53;;;;;;;;;9.00;6.00;;;;;20.48;43.04;101369.25;5057052;28;47181;-82
2022/07/29 06:29:18;;;;;;;;;4.75;4.75;;;;;20.49;42.67;101369.16;5073546;28;70211;-82
2022/07/29 06:31:44;;;;;;;;;9.00;6.25;;;;;20.45;42.89;101370.28;5074576;28;63400;-83
2022/07/29 06:34:09;;;;;;;;;7.50;5.75;;;;;20.40;42.88;101369.69;5074972;28;67530;-82
2022/07/29 06:36:36;;;;;;;;;7.75;6.25;;;;;20.41;42.60;101367.91;5078719;28;45441;-83
2022/07/29 06:39:06;;;;;;;;;6.25;5.00;;;;;20.44;42.59;101375.66;5077946;28;45431;-82
2022/07/29 06:41:32;;;;;;;;;8.00;6.75;;;;;20.42;42.83;101375.75;5078585;27;45317;-83
2022/07/29 06:43:57;;;;;;;;;8.75;6.75;;;;;20.44;42.65;101370.38;5073143;28;45426;-83
2022/07/29 06:46:23;;;;;;;;;8.25;7.00;;;;;20.48;42.92;101380.66;5073073;28;70722;-83
2022/07/29 06:48:48;;;;;;;;;6.50;6.50;;;;;20.48;42.51;101379.81;5077002;28;45875;-83
2022/07/29 06:51:14;;;;;;;;;7.50;7.50;;;;;20.53;42.95;101374.25;5077200;28;45266;-82
2022/07/29 06:53:40;;;;;;;;;7.00;6.00;;;;;20.59;42.24;101369.44;5078680;27;45215;-82
2022/07/29 06:56:08;;;;;;;;;4.50;4.50;;;;;20.62;42.53;101379.88;5077785;27;46306;-82
2022/07/29 06:58:33;;;;;;;;;4.00;4.00;;;;;20.66;42.37;101381.38;5078430;27;45835;-82
2022/07/29 07:01:02;;;;;;;;;5.50;5.00;;;;;20.69;41.89;101378.56;5111582;27;45369;-82
2022/07/29 07:03:28;;;;;;;;;8.50;6.00;;;;;20.72;42.34;101388.06;5077449;28;45558;-82
2022/07/29 07:05:54;;;;;;;;;8.75;6.25;;;;;20.71;42.27;101385.53;5076512;28;49003;-82
2022/07/29 07:08:21;;;;;;;;;4.50;4.50;;;;;20.76;42.06;101394.03;5076822;28;45452;-82
2022/07/29 07:10:47;;;;;;;;;5.00;4.00;;;;;20.74;41.84;101390.63;5077333;28;45391;-82
2022/07/29 07:13:12;;;;;;;;;7.75;5.25;;;;;20.76;42.04;101392.22;5060145;28;45509;-83
2022/07/29 07:15:38;;;;;;;;;9.00;7.00;;;;;20.80;42.06;101398.19;5078160;27;46038;-84
2022/07/29 07:18:05;;;;;;;;;6.25;6.00;;;;;20.83;42.10;101396.19;5078299;27;45347;-85
2022/07/29 07:20:31;;;;;;;;;10.00;6.00;;;;;20.92;41.62;101402.72;5078214;27;45324;-84
2022/07/29 07:22:56;;;;;;;;;6.50;5.00;;;;;20.97;41.78;101399.78;5076948;28;45539;-85
2022/07/29 07:25:22;;;;;;;;;9.00;8.75;;;;;21.07;42.19;101406.22;5075669;28;76552;-83
2022/07/29 07:27:47;;;;;;;;;11.50;8.00;;;;;21.17;42.09;101401.19;5075883;28;70095;-83
2022/07/29 07:30:13;;;;;;;;;7.75;7.50;;;;;21.25;41.82;101402.41;5077603;27;48131;-85
2022/07/29 07:32:38;;;;;;;;;8.00;7.75;;;;;21.33;42.16;101391.34;5076953;28;45486;-83
2022/07/29 07:35:05;;;;;;;;;7.75;7.75;;;;;21.50;41.63;101400.03;5076086;28;51843;-85
2022/07/29 07:37:30;;;;;;;;;5.50;5.00;;;;;21.59;41.15;101399.44;5078183;28;45741;-88
2022/07/29 07:39:56;;;;;;;;;6.25;6.00;;;;;21.71;41.43;101395.13;5093861;27;45235;-86
2022/07/29 07:42:21;;;;;;;;;8.50;7.50;;;;;21.78;40.76;101394.63;5110803;27;45513;-85
2022/07/29 07:44:48;;;;;;;;;9.25;7.25;;;;;21.92;41.10;101400.84;5077866;28;45938;-84
2022/07/29 07:47:13;;;;;;;;;9.00;6.50;;;;;21.99;40.82;101400.31;5072842;27;46115;-85
2022/07/29 07:49:39;;;;;;;;;7.50;6.25;;;;;22.09;40.67;101395.25;5070756;28;45443;-86
2022/07/29 07:52:04;;;;;;;;;6.75;5.50;;;;;22.22;40.50;101398.75;5076636;28;45379;-85
2022/07/29 07:54:30;;;;;;;;;9.00;6.00;;;;;22.32;40.49;101395.50;5055452;28;61427;-87
2022/07/29 07:56:56;;;;;;;;;6.50;6.00;;;;;22.41;40.27;101395.72;5054479;28;45384;-84
2022/07/29 07:59:21;;;;;;;;;6.75;6.25;;;;;22.51;40.06;101403.94;5077205;27;45628;-85
2022/07/29 08:01:46;;;;;;;;;7.50;5.00;;;;;22.66;40.70;101404.66;5088352;27;69403;-85
2022/07/29 08:04:12;;;;;;;;;7.00;5.00;;;;;22.80;41.74;101409.00;5065846;28;72968;-85
2022/07/29 08:06:37;;;;;;;;;9.25;4.50;;;;;22.87;39.61;101396.16;5084749;27;73511;-84
2022/07/29 08:09:03;;;;;;;;;5.50;5.00;;;;;23.02;40.48;101405.69;5101416;27;45408;-85
2022/07/29 08:11:29;;;;;;;;;6.75;5.25;;;;;23.11;39.33;101413.03;5076984;27;45568;-85
2022/07/29 08:13:55;;;;;;;;;10.50;7.00;;;;;23.16;39.65;101407.38;5093576;27;45477;-84
2022/07/29 08:16:20;;;;;;;;;9.50;5.00;;;;;23.28;39.11;101408.31;5076870;28;53105;-85
2022/07/29 08:18:46;;;;;;;;;9.50;6.50;;;;;23.37;38.57;101412.97;5074929;28;55788;-85
2022/07/29 08:21:12;;;;;;;;;6.25;6.25;;;;;23.41;38.39;101401.16;5057014;28;45435;-84
2022/07/29 08:23:45;;;;;;;;;4.75;4.75;;;;;23.54;37.99;101406.41;5058105;27;46589;-85
2022/07/29 08:26:12;;;;;;;;;5.50;4.50;;;;;23.62;38.29;101403.19;5096318;27;45325;-85
2022/07/29 08:28:45;;;;;;;;;8.75;6.00;;;;;23.72;38.54;101404.22;5097509;27;45523;-85
2022/07/29 08:31:10;;;;;;;;;4.75;4.50;;;;;23.70;38.84;101391.06;5088971;27;45415;-86
2022/07/29 08:33:35;;;;;;;;;4.00;4.00;;;;;23.74;37.19;101387.19;5092530;27;47511;-85
2022/07/29 08:36:01;;;;;;;;;7.50;4.75;;;;;23.78;36.97;101393.97;5091824;27;72483;-85
2022/07/29 08:38:27;;;;;;;;;6.00;4.75;;;;;23.81;36.75;101389.41;5092277;27;45324;-85
2022/07/29 08:40:52;;;;;;;;;6.75;5.50;;;;;23.87;36.48;101395.13;5075360;27;45550;-84
2022/07/29 08:43:18;;;;;;;;;4.75;4.75;;;;;23.92;36.41;101392.13;5067552;27;75513;-85
2022/07/29 08:45:46;;;;;;;;;6.00;4.75;;;;;24.02;36.43;101398.47;5075753;28;45521;-84
2022/07/29 08:48:12;;;;;;;;;5.00;5.00;;;;;24.10;36.06;101396.06;5075261;28;45306;-84
2022/07/29 08:50:39;;;;;;;;;3.50;3.50;;;;;24.21;37.08;101402.38;5058613;28;45584;-84
2022/07/29 08:53:07;;;;;;;;;3.00;3.00;;;;;24.26;36.14;101402.88;5075183;27;45463;-84
2022/07/29 08:55:33;;;;;;;;;6.75;3.50;;;;;24.27;35.17;101400.09;5074224;28;45803;-84
2022/07/29 08:57:59;;;;;;;;;5.25;4.00;;;;;24.31;34.73;101406.00;5075894;27;61912;-84
2022/07/29 09:00:25;;;;;;;;;3.75;3.75;;;;;24.42;34.11;101403.38;5076804;27;70496;-85
2022/07/29 09:02:58;;;;;;;;;6.50;4.00;;;;;24.52;34.47;101406.22;5077617;27;47492;-88
2022/07/29 09:05:25;;;;;;;;;3.50;3.25;;;;;24.63;34.49;101398.25;5063534;28;46625;-84
2022/07/29 09:07:51;;;;;;;;;5.75;4.75;;;;;24.73;33.80;101396.56;5075001;27;45492;-83
2022/07/29 09:10:16;;;;;;;;;5.25;5.00;;;;;24.78;33.77;101398.88;5066028;27;51526;-86
2022/07/29 09:12:42;;;;;;;;;4.00;4.00;;;;;24.86;34.79;101390.28;5063586;27;73516;-86
2022/07/29 09:15:07;;;;;;;;;4.75;4.00;;;;;24.86;33.17;101391.09;5057549;28;45297;-86
2022/07/29 09:17:43;;;;;;;;;5.50;5.25;;;;;24.87;33.04;101384.84;5105807;27;45409;-86
2022/07/29 09:20:18;;;;;;;;;4.25;4.00;;;;;24.92;33.21;101393.31;5054821;28;45408;-86
2022/07/29 09:22:46;;;;;;;;;5.25;4.00;;;;;25.01;33.57;101396.19;5067664;27;46293;-86
2022/07/29 09:25:12;;;;;;;;;4.50;2.75;;;;;25.03;33.15;101388.94;5067270;27;45758;-86
2022/07/29 09:27:39;;;;;;;;;5.00;3.75;;;;;25.09;32.86;101381.31;5057434;27;45403;-86
2022/07/29 09:30:10;;;;;;;;;5.50;4.00;;;;;25.23;32.95;101393.53;5055978;28;45414;-85
2022/07/29 09:32:55;;;;;;;;;4.25;3.25;;;;;25.34;32.64;101398.00;5078108;27;47238;-84
2022/07/29 09:35:22;;;;;;;;;4.00;3.00;;;;;25.43;32.82;101399.06;5066247;27;45367;-85
2022/07/29 09:37:48;;;;;;;;;4.00;2.25;;;;;25.46;32.86;101397.00;5072582;27;45505;-86
2022/07/29 09:40:18;;;;;;;;;5.75;3.00;;;;;25.54;32.62;101393.72;5085664;27;45414;-85
2022/07/29 09:42:44;;;;;;;;;3.00;3.00;;;;;25.63;32.52;101397.41;5068268;27;46640;-85
2022/07/29 09:45:10;;;;;;;;;3.00;3.00;;;;;25.68;32.47;101396.06;5067410;27;45288;-85
2022/07/29 09:47:48;;;;;;;;;3.25;3.00;;;;;25.75;32.57;101393.75;5062084;27;45290;-85
2022/07/29 09:50:14;;;;;;;;;4.00;2.00;;;;;25.81;32.64;101405.72;5076731;27;45620;-89
2022/07/29 09:52:58;;;;;;;;;5.25;3.00;;;;;25.85;32.25;101400.03;5057090;27;45492;-83
2022/07/29 09:55:23;;;;;;;;;3.75;3.75;;;;;25.92;32.04;101394.16;5065937;27;72251;-85
2022/07/29 09:57:49;;;;;;;;;5.25;2.50;;;;;25.97;31.82;101392.84;5079927;27;45410;-86
2022/07/29 10:00:17;;;;;;;;;6.00;6.00;;;;;26.04;32.49;101396.69;5053384;27;70527;-86
2022/07/29 10:02:44;;;;;;;;;5.00;3.50;;;;;26.08;31.94;101398.09;5059829;27;46383;-87
2022/07/29 10:05:23;;;;;;;;;5.50;3.00;;;;;26.15;31.88;101400.25;5061644;27;45927;-85
2022/07/29 10:07:51;;;;;;;;;5.25;3.50;;;;;26.20;32.26;101396.22;5075404;27;45390;-85
2022/07/29 10:10:25;;;;;;;;;3.00;3.00;;;;;26.28;31.71;101398.25;5069432;28;45471;-85
2022/07/29 10:12:56;;;;;;;;;6.00;4.00;;;;;26.32;31.56;101393.47;5059396;27;45448;-87
2022/07/29 10:15:23;;;;;;;;;3.00;3.00;;;;;26.35;31.06;101387.88;5077070;27;45301;-87
2022/07/29 10:17:49;;;;;;;;;5.00;4.75;;;;;26.40;31.67;101401.69;5085352;27;45393;-87
2022/07/29 10:20:15;;;;;;;;;3.00;2.75;;;;;26.48;30.89;101393.00;5076017;27;45562;-86
2022/07/29 10:22:41;;;;;;;;;2.50;2.50;;;;;26.53;30.63;101396.13;5096511;27;47176;-86
2022/07/29 10:25:07;;;;;;;;;4.00;4.00;;;;;26.49;30.87;101384.88;5062808;27;45480;-85
2022/07/29 10:27:34;;;;;;;;;2.00;2.00;;;;;26.59;31.03;101398.25;5066601;28;45637;-86
2022/07/29 10:30:01;;;;;;;;;4.50;3.00;;;;;26.50;31.20;101381.22;5075931;27;45484;-84
2022/07/29 10:32:55;;;;;;;;;4.25;4.25;;;;;26.58;31.76;101391.25;5075009;27;45440;-85
2022/07/29 10:35:27;;;;;;;;;3.00;3.00;;;;;26.64;31.09;101393.41;4996446;28;45459;-86
2022/07/29 10:38:44;;;;;;;;;5.50;3.00;;;;;26.79;30.82;101397.41;4996221;28;45409;-83
2022/07/29 10:41:40;;;;;;;;;5.50;3.00;;;;;26.87;30.63;101390.56;4972901;28;45749;-84
2022/07/29 10:44:09;;;;;;;;;5.00;3.75;;;;;26.90;30.37;101396.47;4939245;28;46367;-85
2022/07/29 10:46:36;;;;;;;;;3.00;3.00;;;;;26.97;30.21;101397.63;4957023;28;45466;-89
2022/07/29 10:49:18;;;;;;;;;5.50;3.00;;;;;27.03;30.07;101393.56;4957700;28;45457;-88
2022/07/29 10:52:00;;;;;;;;;3.75;3.00;;;;;27.01;29.93;101396.38;4957430;28;45399;-89
2022/07/29 10:54:34;;;;;;;;;4.25;3.00;;;;;26.99;30.29;101405.50;4956910;28;46416;-87
2022/07/29 10:57:27;;;;;;;;;3.75;3.50;;;;;27.05;30.25;101402.28;4956780;28;45339;-83
2022/07/29 11:00:10;;;;;;;;;5.25;4.00;;;;;27.14;30.51;101390.78;4956258;28;45492;-87
2022/07/29 11:02:42;;;;;;;;;3.75;3.75;;;;;27.21;30.23;101391.94;4957106;28;45493;-87
2022/07/29 11:05:20;;;;;;;;;4.00;3.00;;;;;27.34;30.52;101399.72;4956841;28;46525;-87
2022/07/29 11:08:17;;;;;;;;;4.00;3.50;;;;;27.40;29.92;101399.16;4939957;28;45749;-86
2022/07/29 11:10:42;;;;;;;;;3.75;3.75;;;;;27.47;30.03;101386.09;4956627;28;45426;-88
2022/07/29 11:13:08;;;;;;;;;4.00;2.00;;;;;27.61;29.71;101399.03;4993068;28;45620;-87
2022/07/29 11:15:53;;;;;;;;;3.25;3.25;;;;;27.60;29.79;101394.69;4983086;28;46861;-87
2022/07/29 11:18:19;;;;;;;;;3.50;3.00;;;;;27.58;29.51;101395.78;5068257;27;45321;-85
2022/07/29 11:20:47;;;;;;;;;4.00;4.00;;;;;27.60;30.87;101393.84;5076350;27;45873;-86
2022/07/29 11:23:28;;;;;;;;;3.00;3.00;;;;;27.64;30.14;101395.25;5037016;28;45560;-87
2022/07/29 11:26:22;;;;;;;;;4.25;2.50;;;;;27.75;31.53;101392.44;5037683;28;46670;-88
2022/07/29 11:28:53;;;;;;;;;3.00;3.00;;;;;27.93;30.48;101392.59;5049270;28;45620;-84
2022/07/29 11:31:36;;;;;;;;;4.50;3.50;;;;;28.15;29.76;101394.13;5051889;28;45300;-84